Terminal Aerodrome Forecast
Issued by NWS

Home | Current Version | Previous Version | Text Only | Print | Product List | Glossary Off
Versions: 1 2 3 4 5 6 7 8 9 10 11 12 13 14

796
FTUS41 KCLE 221730
TAFFDY
TAF
KFDY 221730Z 2218/2318 28006KT P6SM SCT040
     FM230200 17003KT P6SM SKC=

USA.gov is the U.S. government's official web portal to all federal, state and local government web resources and services.